Time;durP1;ratioP1;P1;durP2;ratioP2;P2;SDS_P1;SDS_P2;PMS_P1;PMS_P2;Temp;Humidity;BMP_temperature;BMP_pressure;BME280_temperature;BME280_humidity;BME280_pressure;Samples;Min_cycle;Max_cycle;Signal;HPM_P1;HPM_P2
2022/08/30 00:01:29;;;;;;;21.45;15.43;;;18.90;99.90;;;19.49;100.00;98852.78;5024624;28;129607;-73
2022/08/30 00:03:59;;;;;;;21.05;15.93;;;18.90;99.90;;;19.48;100.00;98853.19;5024121;28;119371;-76
2022/08/30 00:06:30;;;;;;;20.23;16.48;;;18.90;99.90;;;19.39;100.00;98857.06;5024079;28;119392;-73
2022/08/30 00:08:59;;;;;;;22.20;16.55;;;18.90;99.90;;;19.44;100.00;98849.63;5001227;28;129510;-74
2022/08/30 00:11:29;;;;;;;20.17;16.95;;;18.90;99.90;;;19.40;100.00;98855.13;5003649;28;128487;-75
2022/08/30 00:13:58;;;;;;;26.70;16.92;;;18.90;99.90;;;19.38;100.00;98847.25;5003786;28;118903;-71
2022/08/30 00:16:28;;;;;;;20.15;15.85;;;18.90;99.90;;;19.40;100.00;98847.66;5001544;28;119404;-77
2022/08/30 00:18:56;;;;;;;28.00;18.30;;;18.90;99.90;;;19.41;100.00;98853.94;5001620;28;129929;-73
2022/08/30 00:21:25;;;;;;;24.02;17.48;;;18.90;99.90;;;19.38;100.00;98847.25;5003383;28;128735;-74
2022/08/30 00:23:56;;;;;;;22.83;17.00;;;18.90;99.90;;;19.43;100.00;98850.78;5001708;28;120150;-76
2022/08/30 00:26:24;;;;;;;24.38;17.73;;;18.90;99.90;;;19.45;100.00;98852.00;5002024;28;120850;-73
2022/08/30 00:28:54;;;;;;;19.38;16.27;;;18.90;99.90;;;19.48;100.00;98858.69;5001186;28;129835;-76
2022/08/30 00:31:22;;;;;;;21.90;17.55;;;19.00;99.90;;;19.57;100.00;98845.34;5001006;28;129367;-71
2022/08/30 00:33:52;;;;;;;26.45;16.75;;;19.00;99.90;;;19.60;100.00;98844.56;5002400;28;121819;-75
2022/08/30 00:36:20;;;;;;;23.48;17.60;;;19.10;99.90;;;19.67;100.00;98854.81;5016797;28;122139;-73
2022/08/30 00:38:49;;;;;;;21.10;16.52;;;19.10;99.90;;;19.70;100.00;98860.34;5001255;28;129866;-77
2022/08/30 00:41:19;;;;;;;22.05;16.42;;;19.20;99.90;;;19.73;100.00;98856.03;5019848;28;129350;-75
2022/08/30 00:43:48;;;;;;;20.40;16.02;;;19.20;99.90;;;19.80;100.00;98855.28;5001413;28;119837;-72
2022/08/30 00:46:16;;;;;;;25.58;17.83;;;19.20;99.90;;;19.84;100.00;98847.81;5003532;28;118554;-72
2022/08/30 00:48:49;;;;;;;23.52;17.00;;;19.20;99.90;;;19.86;100.00;98842.69;5002918;28;129742;-74
2022/08/30 00:51:19;;;;;;;22.52;15.68;;;19.20;99.90;;;19.85;100.00;98857.63;5001567;28;129727;-72
2022/08/30 00:53:53;;;;;;;25.67;16.52;;;19.10;99.90;;;19.79;100.00;98864.69;4987271;28;119071;-82
2022/08/30 00:56:25;;;;;;;20.15;15.93;;;19.20;99.90;;;19.75;100.00;98853.66;5000993;28;120132;-71
2022/08/30 00:58:57;;;;;;;22.20;15.68;;;19.20;99.90;;;19.73;100.00;98867.81;4999776;28;130174;-71
2022/08/30 01:01:27;;;;;;;19.95;16.80;;;19.10;99.90;;;19.75;100.00;98859.94;5003118;28;129542;-73
2022/08/30 01:03:56;;;;;;;20.10;15.40;;;19.20;99.90;;;19.75;100.00;98851.69;5001060;28;119626;-76
2022/08/30 01:06:26;;;;;;;21.52;16.95;;;19.10;99.90;;;19.73;100.00;98862.31;5001256;28;119741;-73
2022/08/30 01:08:56;;;;;;;21.38;16.30;;;19.20;99.90;;;19.73;100.00;98856.03;5000464;28;130062;-73
2022/08/30 01:11:27;;;;;;;22.92;16.25;;;19.20;99.90;;;19.71;100.00;98861.09;5000400;28;129550;-73
2022/08/30 01:13:57;;;;;;;22.55;15.43;;;19.20;99.90;;;19.72;100.00;98862.69;5003111;28;118420;-71
2022/08/30 01:16:26;;;;;;;20.33;15.73;;;19.20;99.90;;;19.78;100.00;98857.63;5016574;28;119077;-78
2022/08/30 01:18:59;;;;;;;19.35;15.82;;;19.20;99.90;;;19.70;100.00;98852.06;5000567;28;129977;-72
2022/08/30 01:21:34;;;;;;;23.48;16.40;;;19.10;99.90;;;19.56;100.00;98847.31;5000612;28;129278;-75
2022/08/30 01:24:06;;;;;;;20.13;15.98;;;19.00;99.90;;;19.57;100.00;98839.81;5001323;28;121586;-72
2022/08/30 01:26:37;;;;;;;21.67;15.93;;;19.00;99.90;;;19.59;100.00;98843.00;4999148;28;122003;-72
2022/08/30 01:29:10;;;;;;;21.90;16.13;;;19.00;99.90;;;19.57;100.00;98843.38;5000140;28;130093;-75
2022/08/30 01:31:39;;;;;;;25.17;16.98;;;19.00;99.90;;;19.52;100.00;98851.22;5000586;28;130275;-75
2022/08/30 01:34:08;;;;;;;21.10;16.38;;;19.00;99.90;;;19.45;100.00;98851.22;5000562;28;119857;-73
2022/08/30 01:36:41;;;;;;;20.42;15.50;;;18.90;99.90;;;19.44;100.00;98860.63;5000410;28;119568;-71
2022/08/30 01:39:14;;;;;;;19.17;15.60;;;18.90;99.90;;;19.37;100.00;98851.16;5001041;28;130131;-76
2022/08/30 01:41:44;;;;;;;20.23;15.60;;;18.90;99.90;;;19.36;100.00;98855.09;5000363;28;129929;-73
2022/08/30 01:44:14;;;;;;;21.27;15.75;;;18.90;99.90;;;19.31;100.00;98849.97;5000334;28;119667;-70
2022/08/30 01:46:47;;;;;;;20.05;14.80;;;18.90;99.90;;;19.27;100.00;98845.63;5015867;28;119433;-75
2022/08/30 01:49:19;;;;;;;20.15;15.73;;;18.90;99.90;;;19.32;100.00;98854.31;5000829;28;129745;-73
2022/08/30 01:51:47;;;;;;;20.75;15.73;;;18.90;99.90;;;19.39;100.00;98851.56;5000157;28;129854;-72
2022/08/30 01:54:18;;;;;;;23.25;16.08;;;18.90;99.90;;;19.44;100.00;98852.38;5000145;28;119547;-72
2022/08/30 01:56:47;;;;;;;19.15;14.35;;;18.90;99.90;;;19.33;100.00;98847.59;5000287;28;119653;-72
2022/08/30 01:59:16;;;;;;;22.77;14.57;;;18.90;99.90;;;19.32;100.00;98843.28;5002461;28;129767;-71
2022/08/30 02:01:45;;;;;;;17.77;13.70;;;18.90;99.90;;;19.33;100.00;98850.34;5002166;28;129382;-70
2022/08/30 02:04:14;;;;;;;17.92;14.07;;;18.90;99.90;;;19.33;100.00;98836.59;5002061;28;118323;-73
2022/08/30 02:06:43;;;;;;;21.23;13.38;;;18.90;99.90;;;19.34;100.00;98840.16;5000467;28;119768;-72
2022/08/30 02:09:12;;;;;;;17.00;12.85;;;18.90;99.90;;;19.26;100.00;98839.34;4998761;28;131463;-71
2022/08/30 02:11:43;;;;;;;16.55;12.77;;;18.90;99.90;;;19.28;100.00;98852.72;4999655;28;129373;-73
2022/08/30 02:14:12;;;;;;;17.63;13.10;;;18.90;99.90;;;19.35;100.00;98853.53;4998640;28;122248;-72
2022/08/30 02:16:41;;;;;;;16.83;12.70;;;18.90;99.90;;;19.33;100.00;98855.84;4999992;28;121840;-73
2022/08/30 02:19:10;;;;;;;14.13;12.60;;;18.90;99.90;;;19.39;100.00;98850.78;4999432;28;130544;-71
2022/08/30 02:21:39;;;;;;;16.15;12.88;;;18.90;99.90;;;19.42;100.00;98851.97;4999006;28;130596;-72
2022/08/30 02:24:07;;;;;;;22.17;13.15;;;18.80;99.90;;;19.40;100.00;98844.91;4999082;28;120141;-73
2022/08/30 02:26:36;;;;;;;17.92;12.80;;;18.80;99.90;;;19.33;100.00;98853.09;4999370;28;119397;-74
2022/08/30 02:29:06;;;;;;;19.10;13.10;;;18.80;99.90;;;19.27;100.00;98845.63;5001347;28;129531;-70
2022/08/30 02:31:35;;;;;;;15.68;12.07;;;18.80;99.90;;;19.23;100.00;98845.63;4998414;28;129486;-75
2022/08/30 02:34:04;;;;;;;18.58;11.40;;;18.80;99.90;;;19.19;100.00;98850.28;4999536;28;119637;-76
2022/08/30 02:36:32;;;;;;;17.65;12.90;;;18.80;99.90;;;19.19;100.00;98855.78;4999376;28;119376;-72
2022/08/30 02:39:01;;;;;;;17.25;12.32;;;18.80;99.90;;;19.25;100.00;98865.25;4997853;28;129979;-70
2022/08/30 02:41:30;;;;;;;14.02;11.40;;;18.70;99.90;;;19.28;100.00;98870.00;5001141;28;129686;-72
2022/08/30 02:43:59;;;;;;;14.73;11.88;;;18.70;99.90;;;19.25;100.00;98857.00;5001364;28;119090;-72
2022/08/30 02:46:30;;;;;;;14.68;10.95;;;18.70;99.90;;;19.24;100.00;98869.16;4999540;28;121128;-71
2022/08/30 02:48:58;;;;;;;18.92;10.02;;;18.70;99.90;;;19.14;100.00;98867.16;4999580;28;129800;-71
2022/08/30 02:51:27;;;;;;;11.98;9.93;;;18.60;99.90;;;19.13;100.00;98862.84;4999199;28;129650;-73
2022/08/30 02:53:55;;;;;;;11.75;8.45;;;18.60;99.90;;;19.00;100.00;98856.88;5002231;28;121056;-75
2022/08/30 02:56:24;;;;;;;13.65;9.68;;;18.50;99.90;;;18.94;100.00;98850.94;4999689;28;119527;-73
2022/08/30 02:58:52;;;;;;;15.93;8.32;;;18.50;99.90;;;18.93;100.00;98860.38;4998784;28;129944;-71
2022/08/30 03:01:21;;;;;;;10.10;7.85;;;18.40;99.90;;;18.88;100.00;98862.69;5000496;28;129815;-70
2022/08/30 03:03:51;;;;;;;13.23;7.78;;;18.40;99.90;;;18.82;100.00;98865.78;5013535;28;122295;-72
2022/08/30 03:06:20;;;;;;;10.32;7.50;;;18.40;99.90;;;18.84;100.00;98868.13;4999221;28;121980;-75
2022/08/30 03:08:49;;;;;;;9.73;7.68;;;18.40;99.90;;;18.90;100.00;98882.31;4999219;28;130527;-74
2022/08/30 03:11:17;;;;;;;14.38;7.75;;;18.40;99.90;;;18.83;100.00;98877.56;4998831;28;129495;-72
2022/08/30 03:13:46;;;;;;;11.95;8.10;;;18.40;99.90;;;18.82;100.00;98874.03;5001096;28;118684;-71
2022/08/30 03:16:14;;;;;;;11.05;7.18;;;18.30;99.90;;;18.74;100.00;98880.63;4999487;28;119220;-75
2022/08/30 03:18:43;;;;;;;10.65;7.50;;;18.30;99.90;;;18.65;100.00;98861.72;4998965;28;130822;-72
2022/08/30 03:21:16;;;;;;;11.55;7.22;;;18.20;99.90;;;18.64;100.00;98870.34;4999436;28;129514;-69
2022/08/30 03:23:45;;;;;;;10.02;6.75;;;18.10;99.90;;;18.61;100.00;98877.38;5014439;28;119308;-73
2022/08/30 03:26:14;;;;;;;10.88;7.05;;;18.20;99.90;;;18.55;100.00;98878.91;5018845;28;120355;-72
2022/08/30 03:28:44;;;;;;;11.88;7.05;;;18.20;99.90;;;18.61;100.00;98879.34;5018989;28;129129;-72
2022/08/30 03:31:13;;;;;;;9.23;6.95;;;18.20;99.90;;;18.60;100.00;98875.78;5018253;28;130074;-71
2022/08/30 03:33:42;;;;;;;9.82;6.85;;;18.10;99.90;;;18.63;100.00;98880.53;5019389;28;119490;-72
2022/08/30 03:36:12;;;;;;;9.82;6.53;;;18.20;99.90;;;18.62;100.00;98878.97;5022397;28;119525;-72
2022/08/30 03:38:40;;;;;;;14.20;6.40;;;18.20;99.90;;;18.54;100.00;98882.81;5021488;28;129962;-74
2022/08/30 03:41:09;;;;;;;10.55;6.85;;;18.20;99.90;;;18.63;100.00;98886.03;5024060;28;129164;-71
2022/08/30 03:43:37;;;;;;;10.13;6.75;;;18.20;99.90;;;18.67;100.00;98886.06;5022148;28;119670;-72
2022/08/30 03:46:06;;;;;;;10.20;6.72;;;18.10;99.90;;;18.71;100.00;98886.09;5022537;28;120473;-72
2022/08/30 03:48:37;;;;;;;7.95;6.30;;;18.10;99.90;;;18.69;100.00;98898.25;5021943;28;130543;-75
2022/08/30 03:51:06;;;;;;;8.25;6.00;;;18.10;99.90;;;18.65;100.00;98899.38;5022158;28;129463;-75
2022/08/30 03:53:36;;;;;;;8.27;5.85;;;18.10;99.90;;;18.67;100.00;98903.34;5020463;28;122926;-72
2022/08/30 03:56:06;;;;;;;8.90;5.40;;;18.10;99.90;;;18.62;100.00;98898.22;5022299;28;122487;-72
2022/08/30 03:58:34;;;;;;;7.63;5.18;;;18.10;99.90;;;18.49;100.00;98913.41;5021491;28;129967;-73
2022/08/30 04:01:03;;;;;;;8.70;5.18;;;18.00;99.90;;;18.55;100.00;98906.38;5021984;28;129940;-71
2022/08/30 04:03:31;;;;;;;9.35;5.65;;;18.00;99.90;;;18.58;100.00;98908.38;5022459;28;119603;-77
2022/08/30 04:06:00;;;;;;;7.75;4.95;;;18.10;99.90;;;18.62;100.00;98914.69;5022098;28;120560;-76
2022/08/30 04:08:29;;;;;;;7.97;5.45;;;18.10;99.90;;;18.61;100.00;98915.84;5024106;28;129599;-71
2022/08/30 04:11:01;;;;;;;7.90;5.72;;;18.10;99.90;;;18.68;100.00;98921.41;5022058;28;129547;-73
2022/08/30 04:13:30;;;;;;;8.35;5.60;;;18.10;99.90;;;18.82;100.00;98911.69;5024224;28;118814;-77
2022/08/30 04:15:58;;;;;;;9.57;5.57;;;18.20;99.90;;;18.94;100.00;98916.16;5023978;28;118547;-74
2022/08/30 04:18:27;;;;;;;12.52;5.80;;;18.30;99.90;;;18.99;100.00;98915.78;5022173;28;130222;-72
2022/08/30 04:20:56;;;;;;;10.02;5.35;;;18.30;99.90;;;19.03;100.00;98920.13;5021522;28;129640;-73
2022/08/30 04:23:24;;;;;;;8.40;5.20;;;18.30;99.90;;;19.11;100.00;98925.69;5021275;28;120126;-72
2022/08/30 04:25:53;;;;;;;7.93;5.15;;;18.30;99.90;;;19.14;100.00;98919.41;5021356;28;119354;-73
2022/08/30 04:28:23;;;;;;;8.60;5.53;;;18.30;99.90;;;19.20;100.00;98917.88;5020112;28;130003;-71
2022/08/30 04:30:52;;;;;;;8.77;5.20;;;18.30;99.90;;;19.06;100.00;98928.78;5023217;28;128734;-74
2022/08/30 04:33:21;;;;;;;7.78;4.57;;;18.30;99.90;;;19.01;100.00;98933.47;5021507;28;119496;-70
2022/08/30 04:35:50;;;;;;;7.25;4.95;;;18.20;99.90;;;18.92;100.00;98930.28;5021970;28;119279;-73
2022/08/30 04:38:20;;;;;;;10.77;4.97;;;18.20;99.90;;;18.83;100.00;98927.03;5021286;28;130452;-72
2022/08/30 04:40:48;;;;;;;8.20;4.70;;;18.00;99.90;;;18.77;100.00;98929.31;5021070;28;129393;-75
2022/08/30 04:43:17;;;;;;;6.55;4.78;;;18.10;99.90;;;18.84;100.00;98929.44;5020332;28;122116;-72
2022/08/30 04:45:48;;;;;;;9.75;4.68;;;18.00;99.90;;;18.79;100.00;98937.19;5020246;28;122214;-70
2022/08/30 04:48:17;;;;;;;8.50;5.25;;;17.90;99.90;;;18.71;100.00;98935.56;5020842;28;130140;-72
2022/08/30 04:50:46;;;;;;;8.15;5.03;;;17.90;99.90;;;18.76;100.00;98929.72;5021205;28;130374;-71
2022/08/30 04:53:15;;;;;;;9.52;5.70;;;18.00;99.90;;;18.88;100.00;98923.16;5021493;28;120209;-70
2022/08/30 04:55:44;;;;;;;9.48;4.78;;;17.90;99.90;;;18.83;100.00;98924.28;5021278;28;119274;-72
2022/08/30 04:58:14;;;;;;;6.70;5.00;;;17.90;99.90;;;18.80;100.00;98917.56;5021069;28;130398;-72
2022/08/30 05:00:44;;;;;;;8.20;4.82;;;17.90;99.90;;;18.78;100.00;98919.16;5021956;28;130008;-71
2022/08/30 05:03:14;;;;;;;9.40;5.65;;;17.90;99.90;;;18.79;100.00;98920.69;5021130;28;119541;-70
2022/08/30 05:05:49;;;;;;;7.65;5.10;;;18.00;99.90;;;19.10;100.00;98918.59;5021240;28;120876;-72
2022/08/30 05:08:21;;;;;;;7.85;5.30;;;18.10;99.90;;;19.42;100.00;98918.00;5019562;28;129996;-71
2022/08/30 05:10:51;;;;;;;8.52;5.10;;;18.30;99.90;;;19.56;98.51;98921.59;5020648;28;129583;-72
2022/08/30 05:13:21;;;;;;;12.48;6.25;;;18.30;99.90;;;19.71;97.94;98922.47;5021064;28;119641;-72
2022/08/30 05:15:49;;;;;;;7.07;5.03;;;18.50;99.90;;;19.80;96.47;98915.84;5021067;28;120470;-71
2022/08/30 05:18:20;;;;;;;11.23;5.68;;;18.60;99.90;;;20.00;95.09;98914.31;5022703;28;128575;-73
2022/08/30 05:20:48;;;;;;;11.35;5.70;;;18.70;99.90;;;20.00;94.64;98916.31;5020569;28;130795;-80
2022/08/30 05:23:17;;;;;;;10.90;5.40;;;18.70;99.90;;;20.30;92.88;98915.97;5020984;28;119320;-71
2022/08/30 05:25:46;;;;;;;9.00;4.68;;;18.90;99.90;;;20.52;91.66;98910.47;5021228;28;119105;-75
2022/08/30 05:28:14;;;;;;;12.32;5.50;;;19.00;99.90;;;20.51;90.91;98908.91;5020325;28;130436;-71
2022/08/30 05:30:43;;;;;;;11.07;5.18;;;19.10;99.90;;;20.88;88.04;98916.81;5020431;28;130189;-73
2022/08/30 05:33:11;;;;;;;10.30;5.60;;;19.20;99.90;;;20.71;88.00;98918.41;5019544;28;122142;-74
2022/08/30 05:35:41;;;;;;;10.27;5.25;;;19.10;99.90;;;20.59;88.96;98916.00;5020619;28;122344;-73
2022/08/30 05:38:10;;;;;;;13.40;5.38;;;19.20;99.90;;;20.45;90.06;98914.81;5020326;28;129897;-72
2022/08/30 05:40:42;;;;;;;12.10;5.57;;;19.00;99.90;;;20.51;89.16;98925.47;5022386;28;128540;-76
2022/08/30 05:43:13;;;;;;;11.98;5.70;;;19.00;99.90;;;20.08;89.94;98915.91;5022424;28;118695;-75
2022/08/30 05:45:41;;;;;;;10.75;5.93;;;18.70;99.90;;;19.93;91.17;98926.13;5020694;28;120146;-75
2022/08/30 05:48:10;;;;;;;7.88;5.68;;;18.60;99.90;;;19.89;91.61;98924.53;5020268;28;130774;-71
2022/08/30 05:50:40;;;;;;;8.73;5.32;;;18.60;99.90;;;19.80;92.60;98933.13;5020704;28;129589;-71
2022/08/30 05:53:09;;;;;;;13.23;6.00;;;18.50;99.90;;;19.98;91.90;98932.44;5022409;28;118924;-72
2022/08/30 05:55:37;;;;;;;16.33;6.90;;;18.60;99.90;;;19.93;91.32;98930.84;5020645;28;120301;-72
2022/08/30 05:58:06;;;;;;;14.68;6.53;;;18.60;99.90;;;19.84;91.87;98927.66;5018402;27;130401;-72
2022/08/30 06:00:36;;;;;;;8.63;6.10;;;18.40;99.90;;;19.64;93.19;98927.16;5020602;28;129560;-72
2022/08/30 06:03:05;;;;;;;12.93;5.93;;;18.40;99.90;;;19.46;94.19;98938.06;5020443;28;119903;-73
2022/08/30 06:05:34;;;;;;;9.98;6.10;;;18.40;99.90;;;19.46;93.45;98940.81;5020343;28;120002;-70
2022/08/30 06:08:04;;;;;;;11.65;5.75;;;18.20;99.90;;;19.44;93.18;98932.16;5019912;28;130068;-72
2022/08/30 06:10:33;;;;;;;18.20;6.35;;;18.30;99.90;;;19.65;90.87;98937.78;5019657;28;129481;-69
2022/08/30 06:13:02;;;;;;;11.15;5.03;;;18.50;99.90;;;19.86;87.13;98950.09;5020037;28;120320;-75
2022/08/30 06:15:31;;;;;;;11.40;5.30;;;18.40;93.30;;;19.85;85.88;98937.47;5020336;28;119111;-71
2022/08/30 06:17:59;;;;;;;8.02;4.15;;;18.50;75.70;;;19.70;84.07;98939.38;5019694;28;130024;-72
2022/08/30 06:20:28;;;;;;;9.70;4.07;;;18.60;36.00;;;19.86;83.11;98936.31;5019540;28;130101;-70
2022/08/30 06:22:56;;;;;;;10.85;4.60;;;18.60;35.60;;;20.33;79.67;98950.22;5018834;28;122652;-71
2022/08/30 06:25:26;;;;;;;6.18;4.10;;;18.90;14.90;;;20.67;78.33;98938.88;5019917;28;122121;-73
2022/08/30 06:27:55;;;;;;;9.00;4.70;;;18.90;17.70;;;21.32;76.66;98945.13;5019615;28;129890;-73
2022/08/30 06:30:24;;;;;;;11.50;4.88;;;19.40;16.20;;;21.36;77.33;98937.59;5022885;28;129474;-74
2022/08/30 06:32:52;;;;;;;10.48;5.15;;;19.60;10.60;;;21.53;76.08;98933.25;5019958;28;120060;-71
2022/08/30 06:35:20;;;;;;;10.88;5.00;;;19.80;1.00;;;21.29;77.03;98937.66;5019805;28;119776;-71
2022/08/30 06:37:49;;;;;;;9.80;5.18;;;19.50;9.50;;;21.29;77.54;98940.41;5019733;28;130200;-73
2022/08/30 06:40:20;;;;;;;11.68;4.93;;;19.30;22.00;;;21.05;77.64;98937.28;5021803;28;129214;-71
2022/08/30 06:42:50;;;;;;;7.65;4.82;;;19.50;5.90;;;21.23;77.93;98942.00;5019771;28;120181;-73
2022/08/30 06:45:20;;;;;;;11.35;5.20;;;19.50;12.10;;;21.17;78.67;98949.88;5019783;28;119365;-72
2022/08/30 06:47:49;;;;;;;10.95;4.93;;;19.30;23.20;;;20.97;79.05;98946.72;5018191;28;130423;-78
2022/08/30 06:50:18;;;;;;;11.65;5.57;;;18.80;48.80;;;20.91;80.34;98953.84;5019560;28;129423;-71
2022/08/30 06:52:47;;;;;;;12.05;5.45;;;19.10;45.00;;;21.22;77.60;98956.97;5019847;28;119859;-73
2022/08/30 06:55:18;;;;;;;10.63;4.97;;;19.30;15.60;;;21.53;74.96;98967.19;5018236;28;119648;-73
2022/08/30 06:57:47;;;;;;;9.15;4.93;;;19.40;8.70;;;21.56;73.39;98962.03;5019824;28;130029;-70
2022/08/30 07:00:18;;;;;;;15.25;4.90;;;19.30;1.00;;;21.25;74.91;98956.94;5019339;28;130014;-76
2022/08/30 07:02:47;;;;;;;18.30;5.38;;;19.20;2.40;;;21.41;74.81;98964.81;5019730;28;120044;-73
2022/08/30 07:05:16;;;;;;;11.18;4.90;;;19.50;1.00;;;21.52;74.98;98959.31;5020101;28;119660;-74
2022/08/30 07:07:45;;;;;;;9.55;4.50;;;19.60;1.00;;;21.63;75.63;98964.78;5019019;28;129767;-72
2022/08/30 07:10:15;;;;;;;7.47;4.20;;;19.30;17.50;;;21.37;76.71;98969.56;5022067;28;129887;-70
2022/08/30 07:12:44;;;;;;;15.30;5.00;;;19.20;21.10;;;21.31;75.76;98962.84;5021716;28;122351;-71
2022/08/30 07:15:13;;;;;;;8.43;4.35;;;19.30;9.70;;;21.45;75.88;98968.34;5022648;28;122357;-70
2022/08/30 07:20:29;;;;;;;9.90;4.22;;;19.80;1.00;;;21.43;72.43;98979.00;5022424;28;129724;-72
2022/08/30 07:22:58;;;;;;;15.88;4.68;;;19.10;1.00;;;21.34;70.89;98962.84;5025247;28;121637;-73
2022/08/30 07:25:26;;;;;;;12.10;4.30;;;19.20;1.00;;;21.72;70.19;98973.41;5022782;28;120523;-72
2022/08/30 07:27:55;;;;;;;11.80;4.53;;;19.50;1.00;;;21.38;72.10;98976.66;5022102;28;130331;-72
2022/08/30 07:30:24;;;;;;;14.60;5.25;;;19.30;1.00;;;21.15;72.58;98975.09;5022726;28;129674;-70
2022/08/30 07:32:54;;;;;;;13.75;4.80;;;19.30;1.00;;;21.36;73.07;98965.22;5022734;28;119170;-70
2022/08/30 07:35:22;;;;;;;8.98;4.40;;;19.60;1.00;;;21.45;72.26;98975.84;5024584;28;119180;-71
2022/08/30 07:37:51;;;;;;;11.98;4.53;;;19.40;1.00;;;21.43;72.39;98976.25;5021240;28;130000;-69
2022/08/30 07:40:20;;;;;;;6.50;3.85;;;19.30;1.00;;;21.27;72.14;98975.88;5021652;28;130378;-70
2022/08/30 07:42:49;;;;;;;8.68;3.78;;;19.00;1.00;;;21.16;72.79;98979.44;5023053;28;119692;-72
2022/08/30 07:45:18;;;;;;;8.10;4.25;;;19.20;1.00;;;21.17;71.75;98982.97;5022565;28;119576;-71
2022/08/30 07:47:47;;;;;;;8.43;4.05;;;19.10;1.00;;;20.60;74.68;98984.53;5022115;28;131115;-70
2022/08/30 07:50:17;;;;;;;7.72;4.10;;;19.10;1.00;;;20.67;75.00;98988.50;5022166;28;130108;-72
2022/08/30 07:52:46;;;;;;;11.52;4.28;;;19.20;1.00;;;20.76;74.06;98986.94;5022363;28;119783;-71
2022/08/30 07:55:15;;;;;;;7.28;3.92;;;19.00;1.00;;;20.60;73.58;98984.53;5024876;28;119691;-71
2022/08/30 07:57:44;;;;;;;11.60;3.75;;;19.10;1.00;;;20.46;73.63;98979.78;5022049;28;130299;-72
2022/08/30 08:00:13;;;;;;;9.02;3.78;;;18.90;1.00;;;20.24;74.83;98991.91;5021940;28;129670;-73
2022/08/30 08:02:42;;;;;;;11.82;4.50;;;18.90;1.00;;;20.15;75.18;98994.22;5020953;28;121935;-73
2022/08/30 08:05:13;;;;;;;15.77;3.97;;;18.90;1.00;;;20.04;76.40;98986.75;5022269;28;122275;-73
2022/08/30 08:07:43;;;;;;;6.60;3.58;;;18.80;1.00;;;20.04;76.44;98991.44;5020617;28;129929;-78
2022/08/30 08:10:12;;;;;;;6.80;3.80;;;18.80;1.00;;;19.97;76.49;98991.44;5021498;28;129527;-74
2022/08/30 08:12:41;;;;;;;10.25;3.53;;;18.80;1.00;;;20.09;76.70;98994.63;5021900;28;120937;-73
2022/08/30 08:15:10;;;;;;;6.78;3.53;;;18.80;1.00;;;20.27;75.67;98989.19;5022122;28;120372;-73
2022/08/30 08:17:39;;;;;;;8.32;3.78;;;18.80;1.00;;;20.41;75.33;98982.91;5023647;28;129314;-73
2022/08/30 08:20:08;;;;;;;9.13;3.70;;;18.90;1.00;;;20.58;74.42;98988.84;5021735;28;129995;-73
2022/08/30 08:22:37;;;;;;;8.23;4.30;;;18.80;1.00;;;20.44;75.46;98997.88;5021616;28;119760;-71
2022/08/30 08:25:08;;;;;;;10.23;3.60;;;18.80;1.00;;;20.36;76.08;98993.53;5024330;28;118957;-73
2022/08/30 08:27:37;;;;;;;11.65;4.05;;;18.90;1.00;;;20.37;76.23;98995.88;5020563;28;129938;-72
2022/08/30 08:30:07;;;;;;;9.20;3.63;;;18.70;1.00;;;20.40;76.17;98992.34;5021154;28;129525;-71
2022/08/30 08:32:36;;;;;;;9.73;4.05;;;18.80;1.00;;;20.45;76.47;98999.44;5021723;28;119145;-71
2022/08/30 08:35:06;;;;;;;17.23;4.70;;;19.00;1.00;;;20.52;75.58;98998.66;5023722;28;118396;-74
2022/08/30 08:37:34;;;;;;;10.48;3.90;;;19.10;1.00;;;20.82;73.84;99004.66;5019810;28;129891;-72
2022/08/30 08:40:04;;;;;;;9.27;4.30;;;19.40;1.00;;;21.13;72.30;98996.78;5021077;28;129582;-73
2022/08/30 08:42:45;;;;;;;7.57;3.60;;;19.60;1.00;;;21.67;69.04;98984.88;5021533;28;120736;-70
2022/08/30 08:45:19;;;;;;;5.05;3.20;;;19.90;1.00;;;22.09;67.24;98988.66;5021934;28;119416;-72
2022/08/30 08:47:58;;;;;;;6.63;3.15;;;20.20;1.00;;;22.07;63.61;98991.06;5021468;28;129868;-71
2022/08/30 08:50:27;;;;;;;5.20;2.80;;;20.20;1.00;;;22.42;63.93;98983.78;5021333;28;129861;-70
2022/08/30 08:55:51;;;;;;;5.82;3.08;;;20.60;1.00;;;22.80;62.91;98986.69;5021513;28;121710;-72
2022/08/30 08:58:26;;;;;;;5.90;2.85;;;20.60;1.00;;;22.91;61.77;98989.38;5019759;28;129958;-75
2022/08/30 09:00:57;;;;;;;5.50;2.97;;;20.80;1.00;;;23.12;61.61;98991.19;5021911;28;129700;-72
2022/08/30 09:03:29;;;;;;;7.20;3.00;;;21.00;1.00;;;22.99;61.07;98993.66;5021152;28;119696;-72
2022/08/30 09:05:58;;;;;;;7.88;2.72;;;20.60;1.00;;;23.09;62.21;98994.78;5021391;28;119697;-72
2022/08/30 09:08:26;;;;;;;9.75;3.03;;;20.80;1.00;;;22.82;60.63;98992.59;5020754;28;130175;-71
2022/08/30 09:11:05;;;;;;;7.00;2.78;;;20.70;1.00;;;22.86;60.87;98987.84;5020972;28;129727;-75
2022/08/30 09:13:35;;;;;;;9.27;3.45;;;20.60;1.00;;;22.93;61.06;98990.53;5021278;28;119579;-71
2022/08/30 09:16:04;;;;;;;5.40;2.65;;;20.70;1.00;;;22.82;60.93;98981.53;5021244;28;119206;-73
2022/08/30 09:18:45;;;;;;;6.93;3.00;;;20.70;1.00;;;22.65;61.18;98983.25;5019582;28;130781;-73
2022/08/30 09:21:20;;;;;;;9.88;3.20;;;20.70;1.00;;;22.56;62.21;98980.94;5020825;28;129475;-73
2022/08/30 09:23:54;;;;;;;10.43;2.80;;;20.60;1.00;;;22.42;63.19;98975.50;5021078;28;120002;-83
2022/08/30 09:26:32;;;;;;;6.47;2.60;;;20.50;1.00;;;22.54;63.13;98986.06;5019791;28;120418;-72
2022/08/30 09:29:03;;;;;;;6.50;2.88;;;20.70;1.00;;;22.56;62.60;98994.78;5020496;28;129988;-71
2022/08/30 09:31:45;;;;;;;6.65;2.95;;;20.60;1.00;;;22.25;63.86;98988.19;5019760;28;129957;-73
2022/08/30 09:34:19;;;;;;;8.35;3.00;;;20.40;1.00;;;22.26;63.71;98996.06;5020738;28;119434;-73
2022/08/30 09:36:51;;;;;;;4.90;3.00;;;20.30;1.00;;;22.20;64.21;98992.16;5021556;28;120033;-72
2022/08/30 09:39:29;;;;;;;10.25;3.28;;;20.40;1.00;;;22.06;63.51;98995.00;5022430;28;130020;-74
2022/08/30 09:42:19;;;;;;;6.28;2.97;;;20.10;1.00;;;21.81;65.01;98995.09;5020434;28;129500;-73
2022/08/30 09:44:49;;;;;;;8.27;3.10;;;20.00;1.00;;;21.94;64.79;99007.28;5021944;28;121973;-72
2022/08/30 09:47:28;;;;;;;6.85;2.90;;;20.00;1.00;;;22.20;64.11;98997.69;5021131;28;121665;-70
2022/08/30 09:50:06;;;;;;;5.38;3.00;;;20.30;1.00;;;22.63;63.28;98993.94;5020141;28;130406;-72
2022/08/30 09:52:57;;;;;;;6.20;2.83;;;20.70;1.00;;;22.82;61.61;99000.13;5020281;28;129889;-73
2022/08/30 09:56:01;;;;;;;7.40;3.47;;;20.80;1.00;;;22.98;60.18;98994.84;5023639;28;122584;-73
2022/08/30 09:58:50;;;;;;;9.60;3.15;;;20.50;1.00;;;22.88;61.70;98995.72;5020486;28;119723;-71
2022/08/30 10:01:28;;;;;;;5.97;2.97;;;20.80;1.00;;;22.94;60.41;98994.88;5021587;28;129979;-74
2022/08/30 10:04:06;;;;;;;4.68;2.58;;;20.80;1.00;;;23.26;60.26;98999.38;5020422;28;129496;-73
2022/08/30 10:06:44;;;;;;;8.95;2.90;;;21.30;1.00;;;23.67;59.01;99004.13;5020631;28;119866;-72
2022/08/30 10:09:30;;;;;;;5.25;2.40;;;21.80;1.00;;;23.91;57.11;99001.50;5020215;28;119430;-73
2022/08/30 10:12:10;;;;;;;5.65;2.63;;;21.80;1.00;;;23.90;57.58;98997.16;5017582;28;129989;-72
2022/08/30 10:14:55;;;;;;;4.90;2.30;;;21.40;1.00;;;23.43;57.58;99002.38;5019977;28;129572;-72
2022/08/30 10:17:43;;;;;;;16.40;3.55;;;21.10;1.00;;;23.35;58.84;99001.66;5022048;28;118942;-72
2022/08/30 10:20:23;;;;;;;7.68;2.78;;;21.00;1.00;;;23.05;60.43;99005.09;5020145;28;119943;-74
2022/08/30 10:23:00;;;;;;;6.45;2.50;;;21.00;1.00;;;23.20;60.05;99003.78;5019673;28;130090;-69
2022/08/30 10:25:35;;;;;;;7.25;2.50;;;21.30;1.00;;;23.04;60.48;99009.03;5019585;28;129623;-71